sensor_id;sensor_type;location;lat;lon;timestamp;temperature;humidity
3001;DHT22;1510;51.072;6.678;2023-06-10T00:00:58;16.90;99.90
3001;DHT22;1510;51.072;6.678;2023-06-10T00:03:26;16.80;99.90
3001;DHT22;1510;51.072;6.678;2023-06-10T00:05:55;16.70;99.90
3001;DHT22;1510;51.072;6.678;2023-06-10T00:08:24;16.60;99.90
3001;DHT22;1510;51.072;6.678;2023-06-10T00:10:57;16.50;99.90
3001;DHT22;1510;51.072;6.678;2023-06-10T00:13:24;16.50;99.90
3001;DHT22;1510;51.072;6.678;2023-06-10T00:15:56;16.30;99.90
3001;DHT22;1510;51.072;6.678;2023-06-10T00:18:24;16.30;99.90
3001;DHT22;1510;51.072;6.678;2023-06-10T00:20:56;16.20;99.90
3001;DHT22;1510;51.072;6.678;2023-06-10T00:23:30;16.20;99.90
3001;DHT22;1510;51.072;6.678;2023-06-10T00:25:58;16.10;99.90
3001;DHT22;1510;51.072;6.678;2023-06-10T00:28:27;16.10;99.90
3001;DHT22;1510;51.072;6.678;2023-06-10T00:31:02;16.00;99.90
3001;DHT22;1510;51.072;6.678;2023-06-10T00:33:30;15.90;99.90
3001;DHT22;1510;51.072;6.678;2023-06-10T00:36:00;15.80;99.90
3001;DHT22;1510;51.072;6.678;2023-06-10T00:38:31;15.70;99.90
3001;DHT22;1510;51.072;6.678;2023-06-10T00:40:59;15.70;99.90
3001;DHT22;1510;51.072;6.678;2023-06-10T00:43:26;15.60;99.90
3001;DHT22;1510;51.072;6.678;2023-06-10T00:45:53;15.60;99.90
3001;DHT22;1510;51.072;6.678;2023-06-10T00:48:23;15.60;99.90
3001;DHT22;1510;51.072;6.678;2023-06-10T00:50:52;15.40;99.90
3001;DHT22;1510;51.072;6.678;2023-06-10T00:53:22;15.40;99.90
3001;DHT22;1510;51.072;6.678;2023-06-10T00:55:52;15.50;99.90
3001;DHT22;1510;51.072;6.678;2023-06-10T00:58:23;15.60;99.90
3001;DHT22;1510;51.072;6.678;2023-06-10T01:00:52;15.50;99.90
3001;DHT22;1510;51.072;6.678;2023-06-10T01:03:29;15.50;99.90
3001;DHT22;1510;51.072;6.678;2023-06-10T01:06:00;15.50;99.90
3001;DHT22;1510;51.072;6.678;2023-06-10T01:08:37;15.50;99.90
3001;DHT22;1510;51.072;6.678;2023-06-10T01:11:13;15.50;99.90
3001;DHT22;1510;51.072;6.678;2023-06-10T01:13:41;15.50;99.90
3001;DHT22;1510;51.072;6.678;2023-06-10T01:16:10;15.40;99.90
3001;DHT22;1510;51.072;6.678;2023-06-10T01:18:43;15.40;99.90
3001;DHT22;1510;51.072;6.678;2023-06-10T01:21:19;15.30;99.90
3001;DHT22;1510;51.072;6.678;2023-06-10T01:23:51;15.30;99.90
3001;DHT22;1510;51.072;6.678;2023-06-10T01:26:24;15.20;99.90
3001;DHT22;1510;51.072;6.678;2023-06-10T01:28:58;15.20;99.90
3001;DHT22;1510;51.072;6.678;2023-06-10T01:31:36;15.30;99.90
3001;DHT22;1510;51.072;6.678;2023-06-10T01:34:10;15.10;99.90
3001;DHT22;1510;51.072;6.678;2023-06-10T01:36:41;15.10;99.90
3001;DHT22;1510;51.072;6.678;2023-06-10T01:39:14;15.00;99.90
3001;DHT22;1510;51.072;6.678;2023-06-10T01:41:42;15.00;99.90
3001;DHT22;1510;51.072;6.678;2023-06-10T01:44:17;14.90;99.90
3001;DHT22;1510;51.072;6.678;2023-06-10T01:46:49;14.90;99.90
3001;DHT22;1510;51.072;6.678;2023-06-10T01:49:17;14.80;99.90
3001;DHT22;1510;51.072;6.678;2023-06-10T01:51:48;14.80;99.90
3001;DHT22;1510;51.072;6.678;2023-06-10T01:54:15;14.80;99.90
3001;DHT22;1510;51.072;6.678;2023-06-10T01:56:43;14.70;99.90
3001;DHT22;1510;51.072;6.678;2023-06-10T01:59:10;14.70;99.90
3001;DHT22;1510;51.072;6.678;2023-06-10T02:01:37;14.70;99.90
3001;DHT22;1510;51.072;6.678;2023-06-10T02:04:06;14.60;99.90
3001;DHT22;1510;51.072;6.678;2023-06-10T02:06:33;14.50;99.90
3001;DHT22;1510;51.072;6.678;2023-06-10T02:09:02;14.60;99.90
3001;DHT22;1510;51.072;6.678;2023-06-10T02:11:32;14.60;99.90
3001;DHT22;1510;51.072;6.678;2023-06-10T02:13:59;14.70;99.90
3001;DHT22;1510;51.072;6.678;2023-06-10T02:16:28;14.50;99.90
3001;DHT22;1510;51.072;6.678;2023-06-10T02:19:02;14.50;99.90
3001;DHT22;1510;51.072;6.678;2023-06-10T02:21:33;14.50;99.90
3001;DHT22;1510;51.072;6.678;2023-06-10T02:24:07;14.40;99.90
3001;DHT22;1510;51.072;6.678;2023-06-10T02:26:35;14.40;99.90
3001;DHT22;1510;51.072;6.678;2023-06-10T02:29:17;14.30;99.90
3001;DHT22;1510;51.072;6.678;2023-06-10T02:31:45;14.30;99.90
3001;DHT22;1510;51.072;6.678;2023-06-10T02:34:23;14.20;99.90
3001;DHT22;1510;51.072;6.678;2023-06-10T02:36:53;14.20;99.90
3001;DHT22;1510;51.072;6.678;2023-06-10T02:39:26;14.10;99.90
3001;DHT22;1510;51.072;6.678;2023-06-10T02:41:53;14.10;99.90
3001;DHT22;1510;51.072;6.678;2023-06-10T02:44:21;14.20;99.90
3001;DHT22;1510;51.072;6.678;2023-06-10T02:46:53;14.20;99.90
3001;DHT22;1510;51.072;6.678;2023-06-10T02:49:21;14.20;99.90
3001;DHT22;1510;51.072;6.678;2023-06-10T02:51:49;14.10;99.90
3001;DHT22;1510;51.072;6.678;2023-06-10T02:54:19;14.00;99.90
3001;DHT22;1510;51.072;6.678;2023-06-10T03:30:41;13.90;99.90
3001;DHT22;1510;51.072;6.678;2023-06-10T03:33:10;13.90;99.90
3001;DHT22;1510;51.072;6.678;2023-06-10T03:36:18;13.90;99.90
3001;DHT22;1510;51.072;6.678;2023-06-10T03:39:09;13.90;99.90
3001;DHT22;1510;51.072;6.678;2023-06-10T03:41:57;13.90;99.90
3001;DHT22;1510;51.072;6.678;2023-06-10T03:45:13;13.90;99.90
3001;DHT22;1510;51.072;6.678;2023-06-10T03:51:37;13.90;99.90
3001;DHT22;1510;51.072;6.678;2023-06-10T03:54:13;13.90;99.90
3001;DHT22;1510;51.072;6.678;2023-06-10T03:57:07;13.90;99.90
3001;DHT22;1510;51.072;6.678;2023-06-10T03:59:50;14.00;99.90
3001;DHT22;1510;51.072;6.678;2023-06-10T04:02:19;13.90;99.90
3001;DHT22;1510;51.072;6.678;2023-06-10T04:04:49;14.10;99.90
3001;DHT22;1510;51.072;6.678;2023-06-10T04:07:40;14.20;99.90
3001;DHT22;1510;51.072;6.678;2023-06-10T04:10:55;14.10;99.90
3001;DHT22;1510;51.072;6.678;2023-06-10T04:13:36;14.10;99.90
3001;DHT22;1510;51.072;6.678;2023-06-10T04:16:03;14.10;99.90
3001;DHT22;1510;51.072;6.678;2023-06-10T04:18:43;14.20;99.90
3001;DHT22;1510;51.072;6.678;2023-06-10T04:22:07;14.30;99.90
3001;DHT22;1510;51.072;6.678;2023-06-10T04:24:40;14.30;99.90
3001;DHT22;1510;51.072;6.678;2023-06-10T04:46:19;15.00;99.90
3001;DHT22;1510;51.072;6.678;2023-06-10T04:49:02;15.10;99.90
3001;DHT22;1510;51.072;6.678;2023-06-10T04:51:33;15.20;99.90
3001;DHT22;1510;51.072;6.678;2023-06-10T04:54:00;15.30;99.90
3001;DHT22;1510;51.072;6.678;2023-06-10T04:56:32;15.50;99.90
3001;DHT22;1510;51.072;6.678;2023-06-10T04:59:22;15.60;99.90
3001;DHT22;1510;51.072;6.678;2023-06-10T05:01:54;15.80;99.90
3001;DHT22;1510;51.072;6.678;2023-06-10T05:04:29;15.90;99.90
3001;DHT22;1510;51.072;6.678;2023-06-10T05:07:06;16.10;99.90
3001;DHT22;1510;51.072;6.678;2023-06-10T05:09:35;16.20;99.90
3001;DHT22;1510;51.072;6.678;2023-06-10T05:12:03;16.30;99.90
3001;DHT22;1510;51.072;6.678;2023-06-10T05:14:42;16.50;99.90
3001;DHT22;1510;51.072;6.678;2023-06-10T05:17:22;16.60;99.90
3001;DHT22;1510;51.072;6.678;2023-06-10T05:19:51;17.10;99.90
3001;DHT22;1510;51.072;6.678;2023-06-10T05:22:21;17.40;99.90
3001;DHT22;1510;51.072;6.678;2023-06-10T05:24:51;17.90;99.90
3001;DHT22;1510;51.072;6.678;2023-06-10T05:27:18;18.40;99.90
3001;DHT22;1510;51.072;6.678;2023-06-10T05:30:03;18.90;99.90
3001;DHT22;1510;51.072;6.678;2023-06-10T05:32:30;19.30;99.90
3001;DHT22;1510;51.072;6.678;2023-06-10T05:34:57;19.70;99.90
3001;DHT22;1510;51.072;6.678;2023-06-10T05:37:34;20.10;99.90
3001;DHT22;1510;51.072;6.678;2023-06-10T05:40:02;20.50;99.90
3001;DHT22;1510;51.072;6.678;2023-06-10T05:42:31;21.10;99.90
3001;DHT22;1510;51.072;6.678;2023-06-10T05:47:51;21.80;99.90
3001;DHT22;1510;51.072;6.678;2023-06-10T05:50:18;21.90;98.60
3001;DHT22;1510;51.072;6.678;2023-06-10T05:52:54;22.00;96.90
3001;DHT22;1510;51.072;6.678;2023-06-10T05:55:43;22.10;96.60
3001;DHT22;1510;51.072;6.678;2023-06-10T06:01:12;22.80;92.00
3001;DHT22;1510;51.072;6.678;2023-06-10T06:03:55;23.00;92.90
3001;DHT22;1510;51.072;6.678;2023-06-10T06:06:46;23.60;92.20
3001;DHT22;1510;51.072;6.678;2023-06-10T06:09:17;24.40;90.60
3001;DHT22;1510;51.072;6.678;2023-06-10T06:12:16;24.60;82.40
3001;DHT22;1510;51.072;6.678;2023-06-10T06:14:57;24.70;82.50
3001;DHT22;1510;51.072;6.678;2023-06-10T06:17:33;24.90;82.60
3001;DHT22;1510;51.072;6.678;2023-06-10T06:20:12;24.70;75.50
3001;DHT22;1510;51.072;6.678;2023-06-10T06:22:50;25.00;73.30
3001;DHT22;1510;51.072;6.678;2023-06-10T06:25:16;25.00;71.50
3001;DHT22;1510;51.072;6.678;2023-06-10T06:27:57;25.10;66.50
3001;DHT22;1510;51.072;6.678;2023-06-10T06:30:31;25.50;69.20
3001;DHT22;1510;51.072;6.678;2023-06-10T06:33:10;25.80;70.10
3001;DHT22;1510;51.072;6.678;2023-06-10T06:36:01;25.30;58.10
3001;DHT22;1510;51.072;6.678;2023-06-10T06:38:38;25.70;58.70
3001;DHT22;1510;51.072;6.678;2023-06-10T06:41:05;25.60;56.20
3001;DHT22;1510;51.072;6.678;2023-06-10T06:43:33;26.10;55.50
3001;DHT22;1510;51.072;6.678;2023-06-10T06:46:00;26.10;52.00
3001;DHT22;1510;51.072;6.678;2023-06-10T06:48:36;26.30;51.80
3001;DHT22;1510;51.072;6.678;2023-06-10T06:51:07;26.10;48.10
3001;DHT22;1510;51.072;6.678;2023-06-10T06:54:02;26.40;42.00
3001;DHT22;1510;51.072;6.678;2023-06-10T06:59:26;26.10;48.70
3001;DHT22;1510;51.072;6.678;2023-06-10T07:11:21;27.20;39.30
3001;DHT22;1510;51.072;6.678;2023-06-10T07:14:14;27.20;32.20
3001;DHT22;1510;51.072;6.678;2023-06-10T07:17:16;27.50;27.20
3001;DHT22;1510;51.072;6.678;2023-06-10T07:20:05;27.80;24.80
3001;DHT22;1510;51.072;6.678;2023-06-10T07:22:34;27.80;20.60
3001;DHT22;1510;51.072;6.678;2023-06-10T07:31:15;28.30;17.60
3001;DHT22;1510;51.072;6.678;2023-06-10T07:47:19;28.70;10.20
3001;DHT22;1510;51.072;6.678;2023-06-10T07:49:46;29.10;9.80
3001;DHT22;1510;51.072;6.678;2023-06-10T07:52:15;29.10;9.50
3001;DHT22;1510;51.072;6.678;2023-06-10T07:54:42;29.30;11.20
3001;DHT22;1510;51.072;6.678;2023-06-10T07:57:09;29.20;7.80
3001;DHT22;1510;51.072;6.678;2023-06-10T07:59:36;28.70;5.40
3001;DHT22;1510;51.072;6.678;2023-06-10T08:02:03;28.80;9.60
3001;DHT22;1510;51.072;6.678;2023-06-10T08:04:32;29.20;6.50
3001;DHT22;1510;51.072;6.678;2023-06-10T08:07:00;29.30;10.70
3001;DHT22;1510;51.072;6.678;2023-06-10T08:09:27;29.40;2.70
3001;DHT22;1510;51.072;6.678;2023-06-10T08:11:54;29.20;2.60
3001;DHT22;1510;51.072;6.678;2023-06-10T08:14:21;29.70;2.80
3001;DHT22;1510;51.072;6.678;2023-06-10T08:16:48;29.80;2.90
3001;DHT22;1510;51.072;6.678;2023-06-10T08:19:15;30.20;3.10
3001;DHT22;1510;51.072;6.678;2023-06-10T08:21:43;30.60;1.00
3001;DHT22;1510;51.072;6.678;2023-06-10T08:24:10;30.60;1.00
3001;DHT22;1510;51.072;6.678;2023-06-10T08:26:40;30.20;1.00
3001;DHT22;1510;51.072;6.678;2023-06-10T08:29:07;30.10;1.00
3001;DHT22;1510;51.072;6.678;2023-06-10T08:31:34;30.40;1.00
3001;DHT22;1510;51.072;6.678;2023-06-10T08:34:01;30.50;1.00
3001;DHT22;1510;51.072;6.678;2023-06-10T08:36:28;30.70;1.00
3001;DHT22;1510;51.072;6.678;2023-06-10T08:38:58;31.10;1.00
3001;DHT22;1510;51.072;6.678;2023-06-10T08:41:27;30.90;1.00
3001;DHT22;1510;51.072;6.678;2023-06-10T08:44:02;31.10;1.00
3001;DHT22;1510;51.072;6.678;2023-06-10T08:46:31;31.20;1.00
3001;DHT22;1510;51.072;6.678;2023-06-10T08:49:03;31.70;1.00
3001;DHT22;1510;51.072;6.678;2023-06-10T08:51:32;32.10;1.00
3001;DHT22;1510;51.072;6.678;2023-06-10T08:54:08;31.70;1.00
3001;DHT22;1510;51.072;6.678;2023-06-10T08:56:41;31.60;1.00
3001;DHT22;1510;51.072;6.678;2023-06-10T08:59:09;30.90;1.00
3001;DHT22;1510;51.072;6.678;2023-06-10T09:01:36;31.20;1.00
3001;DHT22;1510;51.072;6.678;2023-06-10T09:04:03;31.70;1.00
3001;DHT22;1510;51.072;6.678;2023-06-10T09:06:32;31.80;1.00
3001;DHT22;1510;51.072;6.678;2023-06-10T09:08:59;31.80;1.00
3001;DHT22;1510;51.072;6.678;2023-06-10T09:11:28;31.20;1.00
3001;DHT22;1510;51.072;6.678;2023-06-10T09:13:55;31.80;1.00
3001;DHT22;1510;51.072;6.678;2023-06-10T09:16:21;32.30;1.00
3001;DHT22;1510;51.072;6.678;2023-06-10T09:18:48;32.70;1.00
3001;DHT22;1510;51.072;6.678;2023-06-10T09:21:20;32.10;1.00
3001;DHT22;1510;51.072;6.678;2023-06-10T09:23:48;31.90;1.00
3001;DHT22;1510;51.072;6.678;2023-06-10T09:26:15;32.00;1.00
3001;DHT22;1510;51.072;6.678;2023-06-10T09:28:43;32.20;1.00
3001;DHT22;1510;51.072;6.678;2023-06-10T09:31:11;32.10;1.00
3001;DHT22;1510;51.072;6.678;2023-06-10T09:33:39;32.00;1.00
3001;DHT22;1510;51.072;6.678;2023-06-10T09:36:06;33.10;1.00
3001;DHT22;1510;51.072;6.678;2023-06-10T09:38:34;33.50;1.00
3001;DHT22;1510;51.072;6.678;2023-06-10T09:41:03;33.60;1.00
3001;DHT22;1510;51.072;6.678;2023-06-10T09:43:40;32.50;1.00
3001;DHT22;1510;51.072;6.678;2023-06-10T09:46:14;32.30;1.00
3001;DHT22;1510;51.072;6.678;2023-06-10T09:48:42;32.60;1.00
3001;DHT22;1510;51.072;6.678;2023-06-10T09:51:10;32.50;1.00
3001;DHT22;1510;51.072;6.678;2023-06-10T09:53:37;33.10;1.00
3001;DHT22;1510;51.072;6.678;2023-06-10T09:56:04;33.20;1.00
3001;DHT22;1510;51.072;6.678;2023-06-10T09:58:38;33.40;1.00
3001;DHT22;1510;51.072;6.678;2023-06-10T10:01:11;33.80;1.00
3001;DHT22;1510;51.072;6.678;2023-06-10T10:03:45;33.40;1.00
3001;DHT22;1510;51.072;6.678;2023-06-10T10:06:12;33.30;1.00
3001;DHT22;1510;51.072;6.678;2023-06-10T10:08:39;33.60;1.00
3001;DHT22;1510;51.072;6.678;2023-06-10T10:11:06;33.50;1.00
3001;DHT22;1510;51.072;6.678;2023-06-10T10:13:34;33.70;1.00
3001;DHT22;1510;51.072;6.678;2023-06-10T10:16:05;33.80;1.00
3001;DHT22;1510;51.072;6.678;2023-06-10T10:18:35;33.90;1.00
3001;DHT22;1510;51.072;6.678;2023-06-10T10:21:11;34.70;1.00
3001;DHT22;1510;51.072;6.678;2023-06-10T10:23:44;35.30;1.00
3001;DHT22;1510;51.072;6.678;2023-06-10T10:26:15;35.80;1.00
3001;DHT22;1510;51.072;6.678;2023-06-10T10:28:46;35.60;1.00
3001;DHT22;1510;51.072;6.678;2023-06-10T10:31:16;34.50;1.00
3001;DHT22;1510;51.072;6.678;2023-06-10T10:33:54;34.10;1.00
3001;DHT22;1510;51.072;6.678;2023-06-10T10:36:22;33.90;1.00
3001;DHT22;1510;51.072;6.678;2023-06-10T10:38:49;34.90;1.00
3001;DHT22;1510;51.072;6.678;2023-06-10T10:41:16;35.10;1.00
3001;DHT22;1510;51.072;6.678;2023-06-10T10:43:45;35.80;1.00
3001;DHT22;1510;51.072;6.678;2023-06-10T10:46:14;35.40;1.00
3001;DHT22;1510;51.072;6.678;2023-06-10T10:48:41;35.40;1.00
3001;DHT22;1510;51.072;6.678;2023-06-10T10:51:10;35.70;1.00
3001;DHT22;1510;51.072;6.678;2023-06-10T10:53:37;34.50;1.00
3001;DHT22;1510;51.072;6.678;2023-06-10T10:56:05;34.00;1.00
3001;DHT22;1510;51.072;6.678;2023-06-10T10:58:33;33.80;1.00
3001;DHT22;1510;51.072;6.678;2023-06-10T11:01:10;35.40;1.00
3001;DHT22;1510;51.072;6.678;2023-06-10T11:03:43;35.70;1.00
3001;DHT22;1510;51.072;6.678;2023-06-10T11:06:14;35.40;1.00
3001;DHT22;1510;51.072;6.678;2023-06-10T11:08:49;34.50;1.00
3001;DHT22;1510;51.072;6.678;2023-06-10T11:11:20;33.60;1.00
3001;DHT22;1510;51.072;6.678;2023-06-10T11:14:15;32.90;1.00
3001;DHT22;1510;51.072;6.678;2023-06-10T11:16:52;32.00;1.00
3001;DHT22;1510;51.072;6.678;2023-06-10T11:19:32;31.20;1.00
3001;DHT22;1510;51.072;6.678;2023-06-10T11:22:01;31.10;1.00
3001;DHT22;1510;51.072;6.678;2023-06-10T11:24:29;31.40;1.00
3001;DHT22;1510;51.072;6.678;2023-06-10T11:27:14;30.90;1.00
3001;DHT22;1510;51.072;6.678;2023-06-10T11:29:55;30.80;1.00
3001;DHT22;1510;51.072;6.678;2023-06-10T11:32:23;30.70;1.00
3001;DHT22;1510;51.072;6.678;2023-06-10T11:34:52;30.80;1.00
3001;DHT22;1510;51.072;6.678;2023-06-10T11:37:21;31.00;1.00
3001;DHT22;1510;51.072;6.678;2023-06-10T11:39:51;31.50;1.00
3001;DHT22;1510;51.072;6.678;2023-06-10T11:42:19;32.30;1.00
3001;DHT22;1510;51.072;6.678;2023-06-10T11:44:48;32.40;1.00
3001;DHT22;1510;51.072;6.678;2023-06-10T11:47:16;33.00;1.00
3001;DHT22;1510;51.072;6.678;2023-06-10T11:49:42;34.40;1.00
3001;DHT22;1510;51.072;6.678;2023-06-10T11:52:09;35.20;1.00
3001;DHT22;1510;51.072;6.678;2023-06-10T11:54:38;36.90;1.00
3001;DHT22;1510;51.072;6.678;2023-06-10T11:57:05;37.90;1.00
3001;DHT22;1510;51.072;6.678;2023-06-10T11:59:34;38.80;1.00
3001;DHT22;1510;51.072;6.678;2023-06-10T12:02:01;37.40;1.00
3001;DHT22;1510;51.072;6.678;2023-06-10T12:04:28;37.40;1.00
3001;DHT22;1510;51.072;6.678;2023-06-10T12:06:55;37.80;1.00
3001;DHT22;1510;51.072;6.678;2023-06-10T12:09:23;38.70;1.00
3001;DHT22;1510;51.072;6.678;2023-06-10T12:11:54;38.10;1.00
3001;DHT22;1510;51.072;6.678;2023-06-10T12:14:55;36.90;1.00
3001;DHT22;1510;51.072;6.678;2023-06-10T12:17:24;37.20;1.00
3001;DHT22;1510;51.072;6.678;2023-06-10T12:20:04;37.30;1.00
3001;DHT22;1510;51.072;6.678;2023-06-10T12:22:36;36.10;1.00
3001;DHT22;1510;51.072;6.678;2023-06-10T12:25:04;35.00;1.00
3001;DHT22;1510;51.072;6.678;2023-06-10T12:27:34;34.20;1.00
3001;DHT22;1510;51.072;6.678;2023-06-10T12:30:03;33.30;1.00
3001;DHT22;1510;51.072;6.678;2023-06-10T12:32:39;32.00;1.00
3001;DHT22;1510;51.072;6.678;2023-06-10T12:35:07;31.50;1.00
3001;DHT22;1510;51.072;6.678;2023-06-10T12:37:35;31.20;1.00
3001;DHT22;1510;51.072;6.678;2023-06-10T12:40:03;30.90;1.00
3001;DHT22;1510;51.072;6.678;2023-06-10T12:42:33;30.90;1.00
3001;DHT22;1510;51.072;6.678;2023-06-10T12:45:00;30.90;1.00
3001;DHT22;1510;51.072;6.678;2023-06-10T12:47:31;30.90;1.00
3001;DHT22;1510;51.072;6.678;2023-06-10T12:50:00;31.00;1.00
3001;DHT22;1510;51.072;6.678;2023-06-10T12:52:27;31.30;1.00
3001;DHT22;1510;51.072;6.678;2023-06-10T12:54:54;32.60;1.00
3001;DHT22;1510;51.072;6.678;2023-06-10T12:57:22;34.00;1.00
3001;DHT22;1510;51.072;6.678;2023-06-10T12:59:50;36.30;1.00
3001;DHT22;1510;51.072;6.678;2023-06-10T13:02:18;36.90;1.00
3001;DHT22;1510;51.072;6.678;2023-06-10T13:04:46;36.70;1.00
3001;DHT22;1510;51.072;6.678;2023-06-10T13:07:13;37.50;1.00
3001;DHT22;1510;51.072;6.678;2023-06-10T13:09:40;37.00;1.00
3001;DHT22;1510;51.072;6.678;2023-06-10T13:12:07;37.20;1.00
3001;DHT22;1510;51.072;6.678;2023-06-10T13:14:35;36.20;1.00
3001;DHT22;1510;51.072;6.678;2023-06-10T13:17:04;35.90;1.00
3001;DHT22;1510;51.072;6.678;2023-06-10T13:19:32;35.40;1.00
3001;DHT22;1510;51.072;6.678;2023-06-10T13:21:58;36.10;1.00
3001;DHT22;1510;51.072;6.678;2023-06-10T13:24:25;36.20;1.00
3001;DHT22;1510;51.072;6.678;2023-06-10T13:26:52;37.00;1.00
3001;DHT22;1510;51.072;6.678;2023-06-10T13:29:20;37.70;1.00
3001;DHT22;1510;51.072;6.678;2023-06-10T13:31:47;37.40;1.00
3001;DHT22;1510;51.072;6.678;2023-06-10T13:34:15;36.80;1.00
3001;DHT22;1510;51.072;6.678;2023-06-10T13:36:42;37.10;1.00
3001;DHT22;1510;51.072;6.678;2023-06-10T13:39:09;36.60;1.00
3001;DHT22;1510;51.072;6.678;2023-06-10T13:41:36;37.20;1.00
3001;DHT22;1510;51.072;6.678;2023-06-10T13:44:03;37.20;1.00
3001;DHT22;1510;51.072;6.678;2023-06-10T13:46:30;36.90;1.00
3001;DHT22;1510;51.072;6.678;2023-06-10T13:48:57;35.60;1.00
3001;DHT22;1510;51.072;6.678;2023-06-10T13:51:25;35.50;1.00
3001;DHT22;1510;51.072;6.678;2023-06-10T13:53:52;36.10;1.00
3001;DHT22;1510;51.072;6.678;2023-06-10T13:56:19;35.10;1.00
3001;DHT22;1510;51.072;6.678;2023-06-10T13:58:46;34.60;1.00
3001;DHT22;1510;51.072;6.678;2023-06-10T14:01:12;35.10;1.00
3001;DHT22;1510;51.072;6.678;2023-06-10T14:03:39;35.50;1.00
3001;DHT22;1510;51.072;6.678;2023-06-10T14:06:06;36.80;1.00
3001;DHT22;1510;51.072;6.678;2023-06-10T14:08:35;36.90;1.00
3001;DHT22;1510;51.072;6.678;2023-06-10T14:11:02;37.50;1.00
3001;DHT22;1510;51.072;6.678;2023-06-10T14:13:29;38.00;1.00
3001;DHT22;1510;51.072;6.678;2023-06-10T14:15:56;37.40;1.00
3001;DHT22;1510;51.072;6.678;2023-06-10T14:18:23;38.80;1.00
3001;DHT22;1510;51.072;6.678;2023-06-10T14:20:50;40.30;1.00
3001;DHT22;1510;51.072;6.678;2023-06-10T14:23:17;40.20;1.00
3001;DHT22;1510;51.072;6.678;2023-06-10T14:25:45;40.90;1.00
3001;DHT22;1510;51.072;6.678;2023-06-10T14:28:12;41.50;1.00
3001;DHT22;1510;51.072;6.678;2023-06-10T14:30:38;41.20;1.00
3001;DHT22;1510;51.072;6.678;2023-06-10T14:33:05;39.30;1.00
3001;DHT22;1510;51.072;6.678;2023-06-10T14:35:32;37.70;1.00
3001;DHT22;1510;51.072;6.678;2023-06-10T14:37:59;35.70;1.00
3001;DHT22;1510;51.072;6.678;2023-06-10T14:40:26;34.30;1.00
3001;DHT22;1510;51.072;6.678;2023-06-10T14:42:56;33.30;1.00
3001;DHT22;1510;51.072;6.678;2023-06-10T14:45:23;32.50;1.00
3001;DHT22;1510;51.072;6.678;2023-06-10T14:47:50;31.90;1.00
3001;DHT22;1510;51.072;6.678;2023-06-10T14:50:17;31.40;1.00
3001;DHT22;1510;51.072;6.678;2023-06-10T14:52:44;31.00;1.00
3001;DHT22;1510;51.072;6.678;2023-06-10T14:55:11;30.70;1.00
3001;DHT22;1510;51.072;6.678;2023-06-10T14:57:38;30.60;1.00
3001;DHT22;1510;51.072;6.678;2023-06-10T15:00:08;30.50;1.00
3001;DHT22;1510;51.072;6.678;2023-06-10T15:02:35;30.50;1.00
3001;DHT22;1510;51.072;6.678;2023-06-10T15:05:02;30.40;1.00
3001;DHT22;1510;51.072;6.678;2023-06-10T15:07:29;30.60;1.00
3001;DHT22;1510;51.072;6.678;2023-06-10T15:09:56;30.70;1.00
3001;DHT22;1510;51.072;6.678;2023-06-10T15:12:23;30.60;1.00
3001;DHT22;1510;51.072;6.678;2023-06-10T15:14:50;30.70;1.00
3001;DHT22;1510;51.072;6.678;2023-06-10T15:17:18;30.70;1.00
3001;DHT22;1510;51.072;6.678;2023-06-10T15:19:45;31.80;1.00
3001;DHT22;1510;51.072;6.678;2023-06-10T15:22:12;33.30;1.00
3001;DHT22;1510;51.072;6.678;2023-06-10T15:24:39;34.60;1.00
3001;DHT22;1510;51.072;6.678;2023-06-10T15:27:06;34.80;1.00
3001;DHT22;1510;51.072;6.678;2023-06-10T15:29:33;35.50;1.00
3001;DHT22;1510;51.072;6.678;2023-06-10T15:32:00;35.70;1.00
3001;DHT22;1510;51.072;6.678;2023-06-10T15:34:28;35.80;1.00
3001;DHT22;1510;51.072;6.678;2023-06-10T15:36:55;36.30;1.00
3001;DHT22;1510;51.072;6.678;2023-06-10T15:39:22;36.40;1.00
3001;DHT22;1510;51.072;6.678;2023-06-10T15:41:50;36.20;1.00
3001;DHT22;1510;51.072;6.678;2023-06-10T15:44:17;36.10;1.00
3001;DHT22;1510;51.072;6.678;2023-06-10T15:46:44;36.10;1.00
3001;DHT22;1510;51.072;6.678;2023-06-10T15:49:11;36.20;1.00
3001;DHT22;1510;51.072;6.678;2023-06-10T15:51:39;36.20;1.00
3001;DHT22;1510;51.072;6.678;2023-06-10T15:54:06;34.80;1.00
3001;DHT22;1510;51.072;6.678;2023-06-10T15:56:33;34.00;1.00
3001;DHT22;1510;51.072;6.678;2023-06-10T15:59:00;33.70;1.00
3001;DHT22;1510;51.072;6.678;2023-06-10T16:01:27;33.50;1.00
3001;DHT22;1510;51.072;6.678;2023-06-10T16:03:54;33.40;1.00
3001;DHT22;1510;51.072;6.678;2023-06-10T16:06:21;33.50;1.00
3001;DHT22;1510;51.072;6.678;2023-06-10T16:08:49;34.10;1.00
3001;DHT22;1510;51.072;6.678;2023-06-10T16:11:16;34.90;1.00
3001;DHT22;1510;51.072;6.678;2023-06-10T16:13:43;35.40;1.00
3001;DHT22;1510;51.072;6.678;2023-06-10T16:16:10;35.80;1.00
3001;DHT22;1510;51.072;6.678;2023-06-10T16:18:37;35.90;1.00
3001;DHT22;1510;51.072;6.678;2023-06-10T16:21:04;35.40;1.00
3001;DHT22;1510;51.072;6.678;2023-06-10T16:23:31;35.20;1.00
3001;DHT22;1510;51.072;6.678;2023-06-10T16:25:59;35.60;1.00
3001;DHT22;1510;51.072;6.678;2023-06-10T16:28:26;35.40;1.00
3001;DHT22;1510;51.072;6.678;2023-06-10T16:30:53;35.20;1.00
3001;DHT22;1510;51.072;6.678;2023-06-10T16:33:20;35.00;1.00
3001;DHT22;1510;51.072;6.678;2023-06-10T16:35:47;35.20;1.00
3001;DHT22;1510;51.072;6.678;2023-06-10T16:38:14;34.80;1.00
3001;DHT22;1510;51.072;6.678;2023-06-10T16:40:41;33.70;1.00
3001;DHT22;1510;51.072;6.678;2023-06-10T16:43:09;32.70;1.00
3001;DHT22;1510;51.072;6.678;2023-06-10T16:45:36;32.10;1.00
3001;DHT22;1510;51.072;6.678;2023-06-10T16:48:03;31.60;1.00
3001;DHT22;1510;51.072;6.678;2023-06-10T16:50:31;31.20;1.00
3001;DHT22;1510;51.072;6.678;2023-06-10T16:52:58;30.70;1.00
3001;DHT22;1510;51.072;6.678;2023-06-10T16:55:25;30.40;1.00
3001;DHT22;1510;51.072;6.678;2023-06-10T16:57:52;29.90;1.00
3001;DHT22;1510;51.072;6.678;2023-06-10T17:00:21;29.60;1.00
3001;DHT22;1510;51.072;6.678;2023-06-10T17:02:47;29.40;1.00
3001;DHT22;1510;51.072;6.678;2023-06-10T17:05:14;30.00;1.00
3001;DHT22;1510;51.072;6.678;2023-06-10T17:07:41;31.50;1.00
3001;DHT22;1510;51.072;6.678;2023-06-10T17:10:09;32.70;1.00
3001;DHT22;1510;51.072;6.678;2023-06-10T17:12:36;34.00;1.00
3001;DHT22;1510;51.072;6.678;2023-06-10T17:15:04;34.70;1.00
3001;DHT22;1510;51.072;6.678;2023-06-10T17:17:32;35.40;1.00
3001;DHT22;1510;51.072;6.678;2023-06-10T17:20:00;36.20;1.00
3001;DHT22;1510;51.072;6.678;2023-06-10T17:22:27;36.80;1.00
3001;DHT22;1510;51.072;6.678;2023-06-10T17:24:54;37.30;1.00
3001;DHT22;1510;51.072;6.678;2023-06-10T17:27:21;37.40;1.00
3001;DHT22;1510;51.072;6.678;2023-06-10T17:29:49;37.00;1.00
3001;DHT22;1510;51.072;6.678;2023-06-10T17:32:15;37.30;1.00
3001;DHT22;1510;51.072;6.678;2023-06-10T17:34:44;37.10;1.00
3001;DHT22;1510;51.072;6.678;2023-06-10T17:37:11;37.30;1.00
3001;DHT22;1510;51.072;6.678;2023-06-10T17:39:38;37.40;1.00
3001;DHT22;1510;51.072;6.678;2023-06-10T17:42:05;37.90;1.00
3001;DHT22;1510;51.072;6.678;2023-06-10T17:44:32;37.70;1.00
3001;DHT22;1510;51.072;6.678;2023-06-10T17:46:59;37.00;1.00
3001;DHT22;1510;51.072;6.678;2023-06-10T17:49:26;36.90;1.00
3001;DHT22;1510;51.072;6.678;2023-06-10T17:51:54;36.30;1.00
3001;DHT22;1510;51.072;6.678;2023-06-10T17:54:21;36.30;1.00
3001;DHT22;1510;51.072;6.678;2023-06-10T17:56:48;36.70;1.00
3001;DHT22;1510;51.072;6.678;2023-06-10T17:59:16;36.70;1.00
3001;DHT22;1510;51.072;6.678;2023-06-10T18:01:42;36.40;1.00
3001;DHT22;1510;51.072;6.678;2023-06-10T18:04:09;36.40;1.00
3001;DHT22;1510;51.072;6.678;2023-06-10T18:06:36;36.90;1.00
3001;DHT22;1510;51.072;6.678;2023-06-10T18:09:05;36.60;1.00